sensor_id;sensor_type;location;lat;lon;timestamp;P1;durP1;ratioP1;P2;durP2;ratioP2
38089;SDS011;23904;52.322;10.232;2022-11-15T00:00:46;34.03;;;20.73;;
38089;SDS011;23904;52.322;10.232;2022-11-15T00:03:15;32.67;;;20.05;;
38089;SDS011;23904;52.322;10.232;2022-11-15T00:05:42;36.17;;;20.95;;
38089;SDS011;23904;52.322;10.232;2022-11-15T00:08:08;30.92;;;19.58;;
38089;SDS011;23904;52.322;10.232;2022-11-15T00:10:34;30.90;;;19.60;;
38089;SDS011;23904;52.322;10.232;2022-11-15T00:13:03;35.95;;;19.63;;
38089;SDS011;23904;52.322;10.232;2022-11-15T00:15:37;34.13;;;19.98;;
38089;SDS011;23904;52.322;10.232;2022-11-15T00:18:05;28.20;;;18.65;;
38089;SDS011;23904;52.322;10.232;2022-11-15T00:20:35;32.75;;;19.02;;
38089;SDS011;23904;52.322;10.232;2022-11-15T00:23:02;28.10;;;18.35;;
38089;SDS011;23904;52.322;10.232;2022-11-15T00:25:29;36.70;;;20.48;;
38089;SDS011;23904;52.322;10.232;2022-11-15T00:27:55;33.70;;;19.92;;
38089;SDS011;23904;52.322;10.232;2022-11-15T00:30:22;30.02;;;18.92;;
38089;SDS011;23904;52.322;10.232;2022-11-15T00:32:49;28.58;;;17.95;;
38089;SDS011;23904;52.322;10.232;2022-11-15T00:35:15;30.02;;;18.70;;
38089;SDS011;23904;52.322;10.232;2022-11-15T00:37:40;37.90;;;22.13;;
38089;SDS011;23904;52.322;10.232;2022-11-15T00:40:07;34.40;;;20.05;;
38089;SDS011;23904;52.322;10.232;2022-11-15T00:42:33;30.80;;;19.58;;
38089;SDS011;23904;52.322;10.232;2022-11-15T00:44:59;33.15;;;17.90;;
38089;SDS011;23904;52.322;10.232;2022-11-15T00:47:24;32.45;;;20.38;;
38089;SDS011;23904;52.322;10.232;2022-11-15T00:49:50;31.52;;;18.90;;
38089;SDS011;23904;52.322;10.232;2022-11-15T00:52:16;30.23;;;18.48;;
38089;SDS011;23904;52.322;10.232;2022-11-15T00:54:41;28.10;;;18.70;;
38089;SDS011;23904;52.322;10.232;2022-11-15T00:57:07;32.95;;;20.20;;
38089;SDS011;23904;52.322;10.232;2022-11-15T00:59:32;34.85;;;17.73;;
38089;SDS011;23904;52.322;10.232;2022-11-15T01:01:58;29.20;;;18.25;;
38089;SDS011;23904;52.322;10.232;2022-11-15T01:04:24;35.33;;;19.67;;
38089;SDS011;23904;52.322;10.232;2022-11-15T01:06:49;29.20;;;18.67;;
38089;SDS011;23904;52.322;10.232;2022-11-15T01:09:15;29.98;;;18.65;;
38089;SDS011;23904;52.322;10.232;2022-11-15T01:11:41;30.38;;;19.20;;
38089;SDS011;23904;52.322;10.232;2022-11-15T01:14:06;33.25;;;19.13;;
38089;SDS011;23904;52.322;10.232;2022-11-15T01:16:32;29.50;;;18.23;;
38089;SDS011;23904;52.322;10.232;2022-11-15T01:18:58;34.28;;;20.55;;
38089;SDS011;23904;52.322;10.232;2022-11-15T01:21:24;35.88;;;19.33;;
38089;SDS011;23904;52.322;10.232;2022-11-15T01:23:54;26.00;;;17.20;;
38089;SDS011;23904;52.322;10.232;2022-11-15T01:26:21;29.10;;;17.63;;
38089;SDS011;23904;52.322;10.232;2022-11-15T01:28:49;32.28;;;18.27;;
38089;SDS011;23904;52.322;10.232;2022-11-15T01:31:16;28.45;;;17.92;;
38089;SDS011;23904;52.322;10.232;2022-11-15T01:33:45;27.48;;;17.08;;
38089;SDS011;23904;52.322;10.232;2022-11-15T01:36:19;31.10;;;17.63;;
38089;SDS011;23904;52.322;10.232;2022-11-15T01:38:47;27.48;;;16.35;;
38089;SDS011;23904;52.322;10.232;2022-11-15T01:41:25;28.92;;;17.08;;
38089;SDS011;23904;52.322;10.232;2022-11-15T01:43:57;27.73;;;17.58;;
38089;SDS011;23904;52.322;10.232;2022-11-15T01:46:58;29.83;;;17.63;;
38089;SDS011;23904;52.322;10.232;2022-11-15T01:49:27;26.77;;;16.98;;
38089;SDS011;23904;52.322;10.232;2022-11-15T01:51:56;25.17;;;15.93;;
38089;SDS011;23904;52.322;10.232;2022-11-15T01:54:23;27.67;;;17.55;;
38089;SDS011;23904;52.322;10.232;2022-11-15T01:56:57;26.95;;;17.65;;
38089;SDS011;23904;52.322;10.232;2022-11-15T01:59:27;29.38;;;18.38;;
38089;SDS011;23904;52.322;10.232;2022-11-15T02:01:53;29.20;;;17.05;;
38089;SDS011;23904;52.322;10.232;2022-11-15T02:04:20;26.15;;;16.35;;
38089;SDS011;23904;52.322;10.232;2022-11-15T02:06:55;32.28;;;17.27;;
38089;SDS011;23904;52.322;10.232;2022-11-15T02:09:21;27.00;;;16.17;;
38089;SDS011;23904;52.322;10.232;2022-11-15T02:11:47;25.55;;;15.48;;
38089;SDS011;23904;52.322;10.232;2022-11-15T02:14:15;24.73;;;15.65;;
38089;SDS011;23904;52.322;10.232;2022-11-15T02:16:57;29.70;;;16.83;;
38089;SDS011;23904;52.322;10.232;2022-11-15T02:23:13;23.83;;;15.65;;
38089;SDS011;23904;52.322;10.232;2022-11-15T02:34:54;25.02;;;14.60;;
38089;SDS011;23904;52.322;10.232;2022-11-15T02:37:56;23.98;;;14.70;;
38089;SDS011;23904;52.322;10.232;2022-11-15T02:40:37;25.17;;;14.73;;
38089;SDS011;23904;52.322;10.232;2022-11-15T02:43:21;23.85;;;13.88;;
38089;SDS011;23904;52.322;10.232;2022-11-15T02:49:29;21.10;;;14.05;;
38089;SDS011;23904;52.322;10.232;2022-11-15T02:51:59;23.33;;;14.10;;
38089;SDS011;23904;52.322;10.232;2022-11-15T02:54:26;22.15;;;14.38;;
38089;SDS011;23904;52.322;10.232;2022-11-15T02:57:02;22.13;;;14.23;;
38089;SDS011;23904;52.322;10.232;2022-11-15T03:05:15;22.42;;;13.80;;
38089;SDS011;23904;52.322;10.232;2022-11-15T03:11:11;20.17;;;14.02;;
38089;SDS011;23904;52.322;10.232;2022-11-15T03:13:44;23.27;;;14.38;;
38089;SDS011;23904;52.322;10.232;2022-11-15T03:16:30;26.33;;;14.23;;
38089;SDS011;23904;52.322;10.232;2022-11-15T03:19:28;25.35;;;13.65;;
38089;SDS011;23904;52.322;10.232;2022-11-15T03:22:06;24.83;;;14.60;;
38089;SDS011;23904;52.322;10.232;2022-11-15T03:24:37;29.58;;;14.82;;
38089;SDS011;23904;52.322;10.232;2022-11-15T03:27:05;24.35;;;13.95;;
38089;SDS011;23904;52.322;10.232;2022-11-15T03:29:38;26.35;;;16.38;;
38089;SDS011;23904;52.322;10.232;2022-11-15T03:32:11;22.05;;;13.40;;
38089;SDS011;23904;52.322;10.232;2022-11-15T03:34:44;22.92;;;12.90;;
38089;SDS011;23904;52.322;10.232;2022-11-15T03:37:16;23.48;;;13.07;;
38089;SDS011;23904;52.322;10.232;2022-11-15T03:39:46;23.13;;;13.55;;
38089;SDS011;23904;52.322;10.232;2022-11-15T03:45:22;22.95;;;13.20;;
38089;SDS011;23904;52.322;10.232;2022-11-15T03:50:58;22.73;;;13.15;;
38089;SDS011;23904;52.322;10.232;2022-11-15T03:53:23;19.73;;;12.45;;
38089;SDS011;23904;52.322;10.232;2022-11-15T03:55:49;19.67;;;12.38;;
38089;SDS011;23904;52.322;10.232;2022-11-15T03:58:15;22.50;;;12.05;;
38089;SDS011;23904;52.322;10.232;2022-11-15T04:00:40;21.95;;;12.48;;
38089;SDS011;23904;52.322;10.232;2022-11-15T04:03:06;17.33;;;11.93;;
38089;SDS011;23904;52.322;10.232;2022-11-15T04:05:34;20.83;;;11.80;;
38089;SDS011;23904;52.322;10.232;2022-11-15T04:07:59;16.23;;;10.60;;
38089;SDS011;23904;52.322;10.232;2022-11-15T04:10:25;15.38;;;9.15;;
38089;SDS011;23904;52.322;10.232;2022-11-15T04:12:50;19.38;;;11.18;;
38089;SDS011;23904;52.322;10.232;2022-11-15T04:15:17;14.15;;;9.50;;
38089;SDS011;23904;52.322;10.232;2022-11-15T04:17:46;14.63;;;9.15;;
38089;SDS011;23904;52.322;10.232;2022-11-15T04:20:22;18.17;;;9.95;;
38089;SDS011;23904;52.322;10.232;2022-11-15T04:23:10;17.45;;;9.13;;
38089;SDS011;23904;52.322;10.232;2022-11-15T04:26:06;16.75;;;10.27;;
38089;SDS011;23904;52.322;10.232;2022-11-15T04:28:37;14.57;;;9.13;;
38089;SDS011;23904;52.322;10.232;2022-11-15T04:31:23;14.68;;;9.55;;
38089;SDS011;23904;52.322;10.232;2022-11-15T04:33:48;14.35;;;9.02;;
38089;SDS011;23904;52.322;10.232;2022-11-15T04:36:14;13.32;;;7.88;;
38089;SDS011;23904;52.322;10.232;2022-11-15T04:38:59;16.27;;;9.50;;
38089;SDS011;23904;52.322;10.232;2022-11-15T04:41:24;13.57;;;8.68;;
38089;SDS011;23904;52.322;10.232;2022-11-15T04:43:50;17.45;;;10.35;;
38089;SDS011;23904;52.322;10.232;2022-11-15T04:46:16;14.40;;;8.25;;
38089;SDS011;23904;52.322;10.232;2022-11-15T04:48:42;11.43;;;7.30;;
38089;SDS011;23904;52.322;10.232;2022-11-15T04:51:07;15.02;;;8.05;;
38089;SDS011;23904;52.322;10.232;2022-11-15T04:53:33;13.60;;;8.65;;
38089;SDS011;23904;52.322;10.232;2022-11-15T04:55:59;14.25;;;7.63;;
38089;SDS011;23904;52.322;10.232;2022-11-15T04:58:24;15.68;;;7.85;;
38089;SDS011;23904;52.322;10.232;2022-11-15T05:00:50;13.63;;;7.75;;
38089;SDS011;23904;52.322;10.232;2022-11-15T05:03:16;10.48;;;6.95;;
38089;SDS011;23904;52.322;10.232;2022-11-15T05:06:00;11.63;;;7.05;;
38089;SDS011;23904;52.322;10.232;2022-11-15T05:08:38;15.40;;;7.63;;
38089;SDS011;23904;52.322;10.232;2022-11-15T05:11:04;12.65;;;7.65;;
38089;SDS011;23904;52.322;10.232;2022-11-15T05:13:30;16.48;;;7.28;;
38089;SDS011;23904;52.322;10.232;2022-11-15T05:15:56;10.45;;;6.90;;
38089;SDS011;23904;52.322;10.232;2022-11-15T05:18:21;12.98;;;6.65;;
38089;SDS011;23904;52.322;10.232;2022-11-15T05:20:47;9.13;;;6.03;;
38089;SDS011;23904;52.322;10.232;2022-11-15T05:23:13;10.60;;;5.72;;
38089;SDS011;23904;52.322;10.232;2022-11-15T05:25:38;9.73;;;6.15;;
38089;SDS011;23904;52.322;10.232;2022-11-15T05:28:04;12.32;;;7.22;;
38089;SDS011;23904;52.322;10.232;2022-11-15T05:30:30;9.80;;;5.95;;
38089;SDS011;23904;52.322;10.232;2022-11-15T05:32:55;9.13;;;5.22;;
38089;SDS011;23904;52.322;10.232;2022-11-15T05:35:27;10.13;;;6.28;;
38089;SDS011;23904;52.322;10.232;2022-11-15T05:37:59;14.95;;;6.13;;
38089;SDS011;23904;52.322;10.232;2022-11-15T05:40:25;8.75;;;5.22;;
38089;SDS011;23904;52.322;10.232;2022-11-15T05:42:52;10.27;;;5.75;;
38089;SDS011;23904;52.322;10.232;2022-11-15T05:45:18;10.00;;;6.40;;
38089;SDS011;23904;52.322;10.232;2022-11-15T05:47:44;10.48;;;5.65;;
38089;SDS011;23904;52.322;10.232;2022-11-15T05:50:15;13.55;;;6.40;;
38089;SDS011;23904;52.322;10.232;2022-11-15T05:52:42;14.63;;;5.63;;
38089;SDS011;23904;52.322;10.232;2022-11-15T05:55:09;10.63;;;5.70;;
38089;SDS011;23904;52.322;10.232;2022-11-15T05:57:35;7.40;;;5.32;;
38089;SDS011;23904;52.322;10.232;2022-11-15T06:00:03;11.10;;;5.32;;
38089;SDS011;23904;52.322;10.232;2022-11-15T06:02:29;11.13;;;6.05;;
38089;SDS011;23904;52.322;10.232;2022-11-15T06:04:55;8.95;;;4.97;;
38089;SDS011;23904;52.322;10.232;2022-11-15T06:07:21;8.82;;;5.75;;
38089;SDS011;23904;52.322;10.232;2022-11-15T06:09:47;10.45;;;5.88;;
38089;SDS011;23904;52.322;10.232;2022-11-15T06:12:12;6.28;;;5.00;;
38089;SDS011;23904;52.322;10.232;2022-11-15T06:14:41;7.05;;;5.05;;
38089;SDS011;23904;52.322;10.232;2022-11-15T06:17:06;10.45;;;5.28;;
38089;SDS011;23904;52.322;10.232;2022-11-15T06:19:32;9.02;;;4.72;;
38089;SDS011;23904;52.322;10.232;2022-11-15T06:21:58;9.38;;;5.18;;
38089;SDS011;23904;52.322;10.232;2022-11-15T06:24:24;8.80;;;5.72;;
38089;SDS011;23904;52.322;10.232;2022-11-15T06:26:50;8.43;;;5.57;;
38089;SDS011;23904;52.322;10.232;2022-11-15T06:29:16;9.75;;;5.88;;
38089;SDS011;23904;52.322;10.232;2022-11-15T06:31:42;9.13;;;6.28;;
38089;SDS011;23904;52.322;10.232;2022-11-15T06:34:07;11.07;;;6.93;;
38089;SDS011;23904;52.322;10.232;2022-11-15T06:36:34;13.10;;;6.30;;
38089;SDS011;23904;52.322;10.232;2022-11-15T06:39:00;11.73;;;6.50;;
38089;SDS011;23904;52.322;10.232;2022-11-15T06:41:27;10.35;;;5.55;;
38089;SDS011;23904;52.322;10.232;2022-11-15T06:43:53;11.93;;;5.78;;
38089;SDS011;23904;52.322;10.232;2022-11-15T06:46:22;16.13;;;8.35;;
38089;SDS011;23904;52.322;10.232;2022-11-15T06:48:50;13.27;;;8.00;;
38089;SDS011;23904;52.322;10.232;2022-11-15T06:51:17;12.43;;;8.77;;
38089;SDS011;23904;52.322;10.232;2022-11-15T06:53:43;15.38;;;8.73;;
38089;SDS011;23904;52.322;10.232;2022-11-15T06:56:08;12.32;;;8.18;;
38089;SDS011;23904;52.322;10.232;2022-11-15T06:58:34;10.90;;;7.05;;
38089;SDS011;23904;52.322;10.232;2022-11-15T07:01:02;12.45;;;6.32;;
38089;SDS011;23904;52.322;10.232;2022-11-15T07:03:34;10.15;;;6.45;;
38089;SDS011;23904;52.322;10.232;2022-11-15T07:06:02;10.90;;;6.00;;
38089;SDS011;23904;52.322;10.232;2022-11-15T07:08:28;9.95;;;6.45;;
38089;SDS011;23904;52.322;10.232;2022-11-15T07:10:59;13.55;;;7.85;;
38089;SDS011;23904;52.322;10.232;2022-11-15T07:13:28;13.45;;;5.95;;
38089;SDS011;23904;52.322;10.232;2022-11-15T07:16:02;13.95;;;6.75;;
38089;SDS011;23904;52.322;10.232;2022-11-15T07:18:37;9.32;;;5.93;;
38089;SDS011;23904;52.322;10.232;2022-11-15T07:21:05;11.93;;;5.57;;
38089;SDS011;23904;52.322;10.232;2022-11-15T07:23:35;11.23;;;6.70;;
38089;SDS011;23904;52.322;10.232;2022-11-15T07:26:03;15.40;;;6.10;;
38089;SDS011;23904;52.322;10.232;2022-11-15T07:28:29;12.45;;;5.95;;
38089;SDS011;23904;52.322;10.232;2022-11-15T07:30:54;11.93;;;6.68;;
38089;SDS011;23904;52.322;10.232;2022-11-15T07:33:20;10.60;;;5.60;;
38089;SDS011;23904;52.322;10.232;2022-11-15T07:35:46;12.18;;;6.28;;
38089;SDS011;23904;52.322;10.232;2022-11-15T07:38:15;14.77;;;8.40;;
38089;SDS011;23904;52.322;10.232;2022-11-15T07:40:45;11.30;;;6.90;;
38089;SDS011;23904;52.322;10.232;2022-11-15T07:43:11;12.48;;;7.05;;
38089;SDS011;23904;52.322;10.232;2022-11-15T07:45:43;10.45;;;7.47;;
38089;SDS011;23904;52.322;10.232;2022-11-15T07:48:10;14.00;;;6.10;;
38089;SDS011;23904;52.322;10.232;2022-11-15T07:50:36;12.30;;;6.55;;
38089;SDS011;23904;52.322;10.232;2022-11-15T07:53:05;9.93;;;6.53;;
38089;SDS011;23904;52.322;10.232;2022-11-15T07:55:32;8.95;;;6.30;;
38089;SDS011;23904;52.322;10.232;2022-11-15T07:58:05;13.32;;;6.82;;
38089;SDS011;23904;52.322;10.232;2022-11-15T08:00:33;15.90;;;7.28;;
38089;SDS011;23904;52.322;10.232;2022-11-15T08:05:31;12.93;;;7.22;;
38089;SDS011;23904;52.322;10.232;2022-11-15T08:07:58;15.68;;;8.63;;
38089;SDS011;23904;52.322;10.232;2022-11-15T08:10:24;12.65;;;7.38;;
38089;SDS011;23904;52.322;10.232;2022-11-15T08:13:02;16.52;;;7.65;;
38089;SDS011;23904;52.322;10.232;2022-11-15T08:15:31;15.00;;;7.65;;
38089;SDS011;23904;52.322;10.232;2022-11-15T08:18:00;14.07;;;7.13;;
38089;SDS011;23904;52.322;10.232;2022-11-15T08:20:29;13.93;;;6.97;;
38089;SDS011;23904;52.322;10.232;2022-11-15T08:22:59;14.55;;;6.78;;
38089;SDS011;23904;52.322;10.232;2022-11-15T08:25:27;11.98;;;7.28;;
38089;SDS011;23904;52.322;10.232;2022-11-15T08:27:59;12.57;;;7.72;;
38089;SDS011;23904;52.322;10.232;2022-11-15T08:30:29;14.82;;;6.70;;
38089;SDS011;23904;52.322;10.232;2022-11-15T08:32:57;16.48;;;6.57;;
38089;SDS011;23904;52.322;10.232;2022-11-15T08:35:24;12.60;;;6.47;;
38089;SDS011;23904;52.322;10.232;2022-11-15T08:37:50;11.45;;;7.18;;
38089;SDS011;23904;52.322;10.232;2022-11-15T08:40:18;11.63;;;6.60;;
38089;SDS011;23904;52.322;10.232;2022-11-15T08:42:47;14.70;;;7.05;;
38089;SDS011;23904;52.322;10.232;2022-11-15T08:45:14;12.50;;;6.53;;
38089;SDS011;23904;52.322;10.232;2022-11-15T08:47:40;12.40;;;7.68;;
38089;SDS011;23904;52.322;10.232;2022-11-15T08:50:06;9.45;;;6.38;;
38089;SDS011;23904;52.322;10.232;2022-11-15T08:52:32;11.25;;;6.32;;
38089;SDS011;23904;52.322;10.232;2022-11-15T08:54:58;13.23;;;5.88;;
38089;SDS011;23904;52.322;10.232;2022-11-15T08:57:24;8.85;;;6.18;;
38089;SDS011;23904;52.322;10.232;2022-11-15T08:59:50;12.32;;;6.82;;
38089;SDS011;23904;52.322;10.232;2022-11-15T09:02:15;12.73;;;6.60;;
38089;SDS011;23904;52.322;10.232;2022-11-15T09:04:41;11.18;;;6.93;;
38089;SDS011;23904;52.322;10.232;2022-11-15T09:07:11;12.80;;;7.15;;
38089;SDS011;23904;52.322;10.232;2022-11-15T09:09:38;12.23;;;7.50;;
38089;SDS011;23904;52.322;10.232;2022-11-15T09:12:06;12.02;;;6.68;;
38089;SDS011;23904;52.322;10.232;2022-11-15T09:14:32;11.38;;;5.30;;
38089;SDS011;23904;52.322;10.232;2022-11-15T09:16:59;12.55;;;5.43;;
38089;SDS011;23904;52.322;10.232;2022-11-15T09:19:26;9.48;;;5.43;;
38089;SDS011;23904;52.322;10.232;2022-11-15T09:21:51;9.73;;;4.30;;
38089;SDS011;23904;52.322;10.232;2022-11-15T09:24:17;8.05;;;4.97;;
38089;SDS011;23904;52.322;10.232;2022-11-15T09:26:43;7.85;;;4.90;;
38089;SDS011;23904;52.322;10.232;2022-11-15T09:29:10;11.00;;;4.47;;
38089;SDS011;23904;52.322;10.232;2022-11-15T09:31:36;12.13;;;3.97;;
38089;SDS011;23904;52.322;10.232;2022-11-15T09:34:02;7.68;;;3.95;;
38089;SDS011;23904;52.322;10.232;2022-11-15T09:36:28;5.57;;;3.50;;
38089;SDS011;23904;52.322;10.232;2022-11-15T09:38:53;12.18;;;5.07;;
38089;SDS011;23904;52.322;10.232;2022-11-15T09:51:06;7.97;;;3.53;;
38089;SDS011;23904;52.322;10.232;2022-11-15T09:53:42;8.52;;;3.45;;
38089;SDS011;23904;52.322;10.232;2022-11-15T09:56:22;12.93;;;3.40;;
38089;SDS011;23904;52.322;10.232;2022-11-15T10:04:55;5.20;;;2.78;;
38089;SDS011;23904;52.322;10.232;2022-11-15T10:10:20;3.85;;;2.42;;
38089;SDS011;23904;52.322;10.232;2022-11-15T10:12:57;6.97;;;3.90;;
38089;SDS011;23904;52.322;10.232;2022-11-15T10:15:24;5.15;;;3.20;;
38089;SDS011;23904;52.322;10.232;2022-11-15T10:20:57;8.35;;;3.00;;
38089;SDS011;23904;52.322;10.232;2022-11-15T10:23:27;5.38;;;3.55;;
38089;SDS011;23904;52.322;10.232;2022-11-15T10:25:55;7.80;;;3.13;;
38089;SDS011;23904;52.322;10.232;2022-11-15T10:28:27;4.72;;;3.30;;
38089;SDS011;23904;52.322;10.232;2022-11-15T10:30:56;6.72;;;2.97;;
38089;SDS011;23904;52.322;10.232;2022-11-15T10:38:56;6.50;;;2.70;;
38089;SDS011;23904;52.322;10.232;2022-11-15T10:41:28;8.52;;;3.75;;
38089;SDS011;23904;52.322;10.232;2022-11-15T10:46:36;4.80;;;2.80;;
38089;SDS011;23904;52.322;10.232;2022-11-15T10:49:20;12.82;;;4.05;;
38089;SDS011;23904;52.322;10.232;2022-11-15T10:54:43;10.30;;;4.90;;
38089;SDS011;23904;52.322;10.232;2022-11-15T10:57:18;6.32;;;2.85;;
38089;SDS011;23904;52.322;10.232;2022-11-15T10:59:49;7.28;;;3.25;;
38089;SDS011;23904;52.322;10.232;2022-11-15T11:02:27;8.02;;;3.30;;
38089;SDS011;23904;52.322;10.232;2022-11-15T11:05:25;7.50;;;2.97;;
38089;SDS011;23904;52.322;10.232;2022-11-15T11:08:01;9.18;;;3.85;;
38089;SDS011;23904;52.322;10.232;2022-11-15T11:10:36;7.57;;;3.35;;
38089;SDS011;23904;52.322;10.232;2022-11-15T11:16:06;6.20;;;3.63;;
38089;SDS011;23904;52.322;10.232;2022-11-15T11:18:48;7.15;;;3.33;;
38089;SDS011;23904;52.322;10.232;2022-11-15T11:44:41;4.28;;;2.50;;
38089;SDS011;23904;52.322;10.232;2022-11-15T11:47:20;4.95;;;2.67;;
38089;SDS011;23904;52.322;10.232;2022-11-15T11:49:51;5.90;;;2.90;;
38089;SDS011;23904;52.322;10.232;2022-11-15T11:52:42;7.43;;;3.20;;
38089;SDS011;23904;52.322;10.232;2022-11-15T11:55:44;8.02;;;3.08;;
38089;SDS011;23904;52.322;10.232;2022-11-15T11:58:34;9.65;;;4.47;;
38089;SDS011;23904;52.322;10.232;2022-11-15T12:01:16;7.50;;;4.40;;
38089;SDS011;23904;52.322;10.232;2022-11-15T12:06:41;4.97;;;3.03;;
38089;SDS011;23904;52.322;10.232;2022-11-15T12:15:09;9.32;;;2.85;;
38089;SDS011;23904;52.322;10.232;2022-11-15T12:17:41;7.63;;;3.85;;
38089;SDS011;23904;52.322;10.232;2022-11-15T12:20:20;6.57;;;3.10;;
38089;SDS011;23904;52.322;10.232;2022-11-15T12:22:53;4.55;;;3.25;;
38089;SDS011;23904;52.322;10.232;2022-11-15T12:25:45;6.63;;;3.60;;
38089;SDS011;23904;52.322;10.232;2022-11-15T12:28:32;7.93;;;4.35;;
38089;SDS011;23904;52.322;10.232;2022-11-15T12:34:29;5.88;;;3.20;;
38089;SDS011;23904;52.322;10.232;2022-11-15T12:37:01;5.70;;;2.95;;
38089;SDS011;23904;52.322;10.232;2022-11-15T12:40:19;6.82;;;3.58;;
38089;SDS011;23904;52.322;10.232;2022-11-15T12:42:57;6.53;;;3.08;;
38089;SDS011;23904;52.322;10.232;2022-11-15T12:45:36;8.23;;;3.65;;
38089;SDS011;23904;52.322;10.232;2022-11-15T12:48:44;4.72;;;3.05;;
38089;SDS011;23904;52.322;10.232;2022-11-15T12:51:01;7.15;;;3.53;;
38089;SDS011;23904;52.322;10.232;2022-11-15T12:53:28;8.20;;;3.78;;
38089;SDS011;23904;52.322;10.232;2022-11-15T12:58:44;7.90;;;3.75;;
38089;SDS011;23904;52.322;10.232;2022-11-15T13:06:48;12.25;;;3.55;;
38089;SDS011;23904;52.322;10.232;2022-11-15T13:12:01;5.63;;;3.35;;
38089;SDS011;23904;52.322;10.232;2022-11-15T13:20:25;10.23;;;3.92;;
38089;SDS011;23904;52.322;10.232;2022-11-15T13:30:52;8.10;;;3.72;;
38089;SDS011;23904;52.322;10.232;2022-11-15T13:35:56;8.25;;;4.82;;
38089;SDS011;23904;52.322;10.232;2022-11-15T13:38:27;6.82;;;3.50;;
38089;SDS011;23904;52.322;10.232;2022-11-15T13:40:56;7.22;;;3.45;;
38089;SDS011;23904;52.322;10.232;2022-11-15T13:43:34;6.57;;;4.70;;
38089;SDS011;23904;52.322;10.232;2022-11-15T13:46:07;8.57;;;5.35;;
38089;SDS011;23904;52.322;10.232;2022-11-15T13:48:36;13.63;;;5.63;;
38089;SDS011;23904;52.322;10.232;2022-11-15T13:51:07;9.38;;;5.20;;
38089;SDS011;23904;52.322;10.232;2022-11-15T13:53:49;9.48;;;5.28;;
38089;SDS011;23904;52.322;10.232;2022-11-15T13:56:20;7.82;;;4.72;;
38089;SDS011;23904;52.322;10.232;2022-11-15T13:58:46;13.20;;;6.25;;
38089;SDS011;23904;52.322;10.232;2022-11-15T14:01:17;8.63;;;5.13;;
38089;SDS011;23904;52.322;10.232;2022-11-15T14:03:50;11.32;;;5.82;;
38089;SDS011;23904;52.322;10.232;2022-11-15T14:06:23;10.40;;;5.18;;
38089;SDS011;23904;52.322;10.232;2022-11-15T14:11:27;7.55;;;5.05;;
38089;SDS011;23904;52.322;10.232;2022-11-15T14:14:12;12.88;;;5.35;;
38089;SDS011;23904;52.322;10.232;2022-11-15T14:19:10;10.10;;;5.65;;
38089;SDS011;23904;52.322;10.232;2022-11-15T14:22:08;11.60;;;6.28;;
38089;SDS011;23904;52.322;10.232;2022-11-15T14:24:46;15.93;;;6.00;;
38089;SDS011;23904;52.322;10.232;2022-11-15T14:27:30;13.70;;;6.30;;
38089;SDS011;23904;52.322;10.232;2022-11-15T14:29:56;13.73;;;7.50;;
38089;SDS011;23904;52.322;10.232;2022-11-15T14:32:26;15.05;;;8.02;;
38089;SDS011;23904;52.322;10.232;2022-11-15T14:34:55;14.75;;;7.60;;
38089;SDS011;23904;52.322;10.232;2022-11-15T14:37:30;13.07;;;6.72;;
38089;SDS011;23904;52.322;10.232;2022-11-15T14:39:59;12.32;;;5.65;;
38089;SDS011;23904;52.322;10.232;2022-11-15T14:42:27;9.85;;;5.10;;
38089;SDS011;23904;52.322;10.232;2022-11-15T14:44:53;12.20;;;5.70;;
38089;SDS011;23904;52.322;10.232;2022-11-15T14:47:18;12.63;;;6.10;;
38089;SDS011;23904;52.322;10.232;2022-11-15T14:49:44;8.48;;;5.75;;
38089;SDS011;23904;52.322;10.232;2022-11-15T14:52:32;8.13;;;5.50;;
38089;SDS011;23904;52.322;10.232;2022-11-15T14:55:00;9.70;;;4.70;;
38089;SDS011;23904;52.322;10.232;2022-11-15T14:57:29;12.35;;;5.47;;
38089;SDS011;23904;52.322;10.232;2022-11-15T14:59:55;9.18;;;5.28;;
38089;SDS011;23904;52.322;10.232;2022-11-15T15:02:25;14.30;;;6.15;;
38089;SDS011;23904;52.322;10.232;2022-11-15T15:04:52;11.90;;;6.40;;
38089;SDS011;23904;52.322;10.232;2022-11-15T15:07:18;12.25;;;6.03;;
38089;SDS011;23904;52.322;10.232;2022-11-15T15:09:44;10.82;;;6.28;;
38089;SDS011;23904;52.322;10.232;2022-11-15T15:12:13;13.38;;;7.72;;
38089;SDS011;23904;52.322;10.232;2022-11-15T15:14:45;10.52;;;6.25;;
38089;SDS011;23904;52.322;10.232;2022-11-15T15:17:13;13.43;;;6.93;;
38089;SDS011;23904;52.322;10.232;2022-11-15T15:19:39;13.40;;;6.55;;
38089;SDS011;23904;52.322;10.232;2022-11-15T15:22:05;12.55;;;6.47;;
38089;SDS011;23904;52.322;10.232;2022-11-15T15:24:36;12.88;;;6.35;;
38089;SDS011;23904;52.322;10.232;2022-11-15T15:27:02;12.63;;;7.57;;
38089;SDS011;23904;52.322;10.232;2022-11-15T15:29:27;12.88;;;6.88;;
38089;SDS011;23904;52.322;10.232;2022-11-15T15:31:53;12.43;;;7.25;;
38089;SDS011;23904;52.322;10.232;2022-11-15T15:34:19;15.85;;;8.20;;
38089;SDS011;23904;52.322;10.232;2022-11-15T15:36:44;11.45;;;7.03;;
38089;SDS011;23904;52.322;10.232;2022-11-15T15:39:10;20.08;;;8.50;;
38089;SDS011;23904;52.322;10.232;2022-11-15T15:41:37;11.60;;;7.50;;
38089;SDS011;23904;52.322;10.232;2022-11-15T15:44:02;11.52;;;7.15;;
38089;SDS011;23904;52.322;10.232;2022-11-15T15:46:28;11.10;;;7.10;;
38089;SDS011;23904;52.322;10.232;2022-11-15T15:48:53;13.82;;;7.45;;
38089;SDS011;23904;52.322;10.232;2022-11-15T15:51:19;12.10;;;8.00;;
38089;SDS011;23904;52.322;10.232;2022-11-15T15:53:45;11.88;;;8.15;;
38089;SDS011;23904;52.322;10.232;2022-11-15T15:56:12;13.90;;;8.32;;
38089;SDS011;23904;52.322;10.232;2022-11-15T15:58:37;13.95;;;7.93;;
38089;SDS011;23904;52.322;10.232;2022-11-15T16:01:04;14.65;;;8.40;;
38089;SDS011;23904;52.322;10.232;2022-11-15T16:03:30;13.25;;;8.43;;
38089;SDS011;23904;52.322;10.232;2022-11-15T16:05:56;15.23;;;8.45;;
38089;SDS011;23904;52.322;10.232;2022-11-15T16:08:23;16.58;;;8.35;;
38089;SDS011;23904;52.322;10.232;2022-11-15T16:10:51;15.68;;;8.88;;
38089;SDS011;23904;52.322;10.232;2022-11-15T16:13:17;13.55;;;8.75;;
38089;SDS011;23904;52.322;10.232;2022-11-15T16:15:42;23.83;;;9.68;;
38089;SDS011;23904;52.322;10.232;2022-11-15T16:18:12;17.10;;;9.77;;
38089;SDS011;23904;52.322;10.232;2022-11-15T16:20:43;13.93;;;8.55;;
38089;SDS011;23904;52.322;10.232;2022-11-15T16:23:13;14.77;;;8.82;;
38089;SDS011;23904;52.322;10.232;2022-11-15T16:25:42;19.25;;;8.38;;
38089;SDS011;23904;52.322;10.232;2022-11-15T16:30:49;17.95;;;10.15;;
38089;SDS011;23904;52.322;10.232;2022-11-15T16:33:25;22.27;;;12.13;;
38089;SDS011;23904;52.322;10.232;2022-11-15T16:35:51;19.77;;;11.38;;
38089;SDS011;23904;52.322;10.232;2022-11-15T16:38:16;17.98;;;10.88;;
38089;SDS011;23904;52.322;10.232;2022-11-15T16:40:43;16.38;;;11.00;;
38089;SDS011;23904;52.322;10.232;2022-11-15T16:43:09;17.20;;;10.02;;
38089;SDS011;23904;52.322;10.232;2022-11-15T16:45:35;23.88;;;10.13;;
38089;SDS011;23904;52.322;10.232;2022-11-15T16:48:01;15.75;;;9.38;;
38089;SDS011;23904;52.322;10.232;2022-11-15T16:50:32;16.95;;;9.77;;
38089;SDS011;23904;52.322;10.232;2022-11-15T16:53:05;14.68;;;9.02;;
38089;SDS011;23904;52.322;10.232;2022-11-15T16:55:31;14.32;;;8.50;;
38089;SDS011;23904;52.322;10.232;2022-11-15T16:57:57;18.73;;;9.65;;